createdAt,value
2019-02-22T12:22:42.177Z,91.04
2019-02-22T12:23:49.113Z,91.04
2019-02-22T12:24:55.872Z,90.97
2019-02-22T12:26:03.076Z,90.93
2019-02-22T12:27:10.048Z,90.87
2019-02-22T12:28:16.345Z,90.80
2019-02-22T12:29:23.143Z,90.72
2019-02-22T12:30:30.232Z,90.69
2019-02-22T12:31:37.188Z,90.67
2019-02-22T12:32:43.955Z,90.65
2019-02-22T12:33:50.733Z,90.59
2019-02-22T12:34:57.596Z,90.59
2019-02-22T12:36:04.424Z,90.62
2019-02-22T12:37:11.233Z,90.58
2019-02-22T12:38:18.096Z,90.54
2019-02-22T12:39:24.869Z,90.55
2019-02-22T12:40:31.836Z,90.54
2019-02-22T12:41:38.625Z,90.44
2019-02-22T12:42:45.347Z,90.42
2019-02-22T12:43:52.119Z,90.36
2019-02-22T12:45:02.854Z,90.31
2019-02-22T12:46:05.773Z,90.24
2019-02-22T12:47:12.567Z,90.16
2019-02-22T12:48:19.580Z,90.04
2019-02-22T12:49:26.456Z,89.95
2019-02-22T12:50:33.300Z,89.85
2019-02-22T12:51:40.102Z,89.79
2019-02-22T12:52:47.236Z,89.55
2019-02-22T12:53:53.921Z,89.33
2019-02-22T12:55:01.300Z,89.16
2019-02-22T12:56:08.013Z,89.05
2019-02-22T12:57:14.836Z,88.88
2019-02-22T12:58:21.712Z,88.78
2019-02-22T12:59:28.575Z,88.66
2019-02-22T13:00:35.400Z,88.49
2019-02-22T13:01:42.200Z,88.32
2019-02-22T13:02:49.293Z,88.17
2019-02-22T13:03:56.243Z,88.04
2019-02-22T13:05:03.149Z,87.89
2019-02-22T13:06:10.239Z,87.71
2019-02-22T13:07:17.272Z,87.58
2019-02-22T13:08:24.011Z,87.42
2019-02-22T13:09:36.367Z,87.22
2019-02-22T13:10:37.650Z,87.10
2019-02-22T13:11:44.472Z,86.91
2019-02-22T13:12:51.270Z,86.75
2019-02-22T13:13:58.161Z,86.69
2019-02-22T13:15:13.607Z,86.74
2019-02-22T13:16:11.801Z,86.66
2019-02-22T13:17:18.539Z,86.61
2019-02-22T13:18:25.321Z,86.55
2019-02-22T13:19:32.311Z,86.24
2019-02-22T13:20:39.171Z,85.99
2019-02-22T13:21:46.024Z,85.76
2019-02-22T13:22:52.839Z,85.59
2019-02-22T13:23:59.681Z,85.34
2019-02-22T13:25:06.665Z,85.17
2019-02-22T13:26:13.509Z,84.96
2019-02-22T13:27:20.465Z,84.78
2019-02-22T13:28:27.331Z,84.55
2019-02-22T13:29:34.197Z,84.47
2019-02-22T13:30:40.955Z,84.35
2019-02-22T13:31:48.059Z,84.26
2019-02-22T13:32:54.597Z,84.10
2019-02-22T13:34:01.567Z,83.78
2019-02-22T13:35:10.869Z,83.57
2019-02-22T13:36:15.208Z,83.50
2019-02-22T13:37:22.067Z,83.28
2019-02-22T13:38:29.048Z,83.19
2019-02-22T13:39:35.912Z,82.97
2019-02-22T13:40:42.714Z,82.77
2019-02-22T13:41:49.752Z,82.53
2019-02-22T13:42:56.632Z,82.40
2019-02-22T13:44:03.484Z,82.20
2019-02-22T13:45:10.229Z,81.95
2019-02-22T13:46:17.288Z,81.82
2019-02-22T13:47:24.097Z,81.56
2019-02-22T13:48:31.044Z,81.33
2019-02-22T13:49:37.907Z,81.11
2019-02-22T13:50:44.788Z,80.98
2019-02-22T13:51:51.767Z,80.79
2019-02-22T13:52:58.446Z,80.71
2019-02-22T13:54:05.688Z,80.71
2019-02-22T13:55:12.564Z,80.41
2019-02-22T13:56:29.184Z,80.28
2019-02-22T13:57:26.313Z,79.99
2019-02-22T13:58:33.155Z,79.84
2019-02-22T13:59:40.127Z,79.74
2019-02-22T14:00:47.088Z,79.57
2019-02-22T14:01:53.945Z,79.34
2019-02-22T14:03:00.820Z,79.15
2019-02-22T14:04:07.569Z,78.96
2019-02-22T14:05:14.373Z,78.67
2019-02-22T14:06:21.236Z,78.57
2019-02-22T14:07:28.119Z,78.43
2019-02-22T14:08:34.956Z,78.28
2019-02-22T14:09:41.722Z,78.15
2019-02-22T14:10:49.487Z,77.78
2019-02-22T14:11:55.500Z,77.63
2019-02-22T14:13:02.439Z,77.56
2019-02-22T14:14:09.105Z,77.42
2019-02-22T14:15:18.702Z,77.46
2019-02-22T14:16:23.548Z,77.21
2019-02-22T14:17:30.339Z,76.96
2019-02-22T14:18:37.213Z,76.83
2019-02-22T14:19:44.157Z,76.60
2019-02-22T14:20:51.016Z,76.55
2019-02-22T14:21:59.309Z,76.40
2019-02-22T14:23:06.100Z,76.38
2019-02-22T14:24:11.358Z,76.30
2019-02-22T14:25:18.281Z,76.05
2019-02-22T14:26:25.044Z,75.88
2019-02-22T14:27:32.024Z,75.61
2019-02-22T14:28:38.885Z,75.37
2019-02-22T14:29:45.987Z,75.12
2019-02-22T14:30:52.833Z,74.96
2019-02-22T14:31:59.846Z,74.73
2019-02-22T14:33:07.935Z,74.65
2019-02-22T14:34:15.171Z,74.55
2019-02-22T14:35:20.604Z,74.41
2019-02-22T14:36:29.129Z,74.27
2019-02-22T14:37:34.539Z,74.06
2019-02-22T14:38:41.380Z,73.88
2019-02-22T14:39:48.287Z,73.71
2019-02-22T14:40:55.134Z,73.62
2019-02-22T14:42:02.020Z,73.58
2019-02-22T14:43:16.086Z,73.39
2019-02-22T14:44:15.746Z,73.38
2019-02-22T14:45:22.664Z,73.27
2019-02-22T14:46:29.932Z,73.03
2019-02-22T14:47:36.343Z,72.81
2019-02-22T14:48:45.124Z,72.76
2019-02-22T14:49:49.891Z,72.74
2019-02-22T14:50:56.734Z,72.60
2019-02-22T14:52:03.599Z,72.49
2019-02-22T14:53:19.104Z,72.34
2019-02-22T14:54:17.060Z,72.24
2019-02-22T14:55:23.805Z,72.13
2019-02-22T14:56:30.671Z,72.08
2019-02-22T14:57:37.545Z,71.82
2019-02-22T14:58:44.417Z,71.76
2019-02-22T14:59:51.275Z,71.74
2019-02-22T15:00:58.073Z,71.56
2019-02-22T15:02:04.909Z,71.43
2019-02-22T15:03:11.711Z,71.45
2019-02-22T15:04:18.561Z,71.37
2019-02-22T15:05:25.330Z,71.28
2019-02-22T15:06:32.178Z,71.18
2019-02-22T15:07:38.939Z,70.93
2019-02-22T15:08:45.832Z,70.88
2019-02-22T15:09:52.480Z,70.82
2019-02-22T15:10:59.744Z,70.79
2019-02-22T15:12:06.528Z,70.64
2019-02-22T15:13:16.865Z,70.53
2019-02-22T15:14:20.064Z,70.53
2019-02-22T15:15:26.945Z,70.48
2019-02-22T15:16:33.876Z,70.44
2019-02-22T15:17:40.860Z,70.25
2019-02-22T15:18:47.627Z,70.18
2019-02-22T15:19:54.580Z,70.14
2019-02-22T15:21:01.563Z,69.93
2019-02-22T15:22:08.320Z,69.84
2019-02-22T15:23:15.087Z,69.69
2019-02-22T15:24:22.183Z,69.55
2019-02-22T15:25:29.011Z,69.53
2019-02-22T15:26:35.846Z,69.50
2019-02-22T15:27:42.640Z,69.52
2019-02-22T15:28:49.547Z,69.37
2019-02-22T15:29:56.318Z,69.43
2019-02-22T15:31:03.074Z,69.36
2019-02-22T15:32:09.913Z,69.25
2019-02-22T15:33:17.293Z,69.17
2019-02-22T15:34:24.130Z,69.13
2019-02-22T15:35:31.007Z,69.13
2019-02-22T15:36:37.910Z,69.11
2019-02-22T15:37:44.766Z,69.06
2019-02-22T15:38:51.704Z,69.00
2019-02-22T15:39:58.559Z,68.96
2019-02-22T15:41:05.625Z,68.95
2019-02-22T15:42:12.363Z,68.91
2019-02-22T15:43:19.210Z,68.81
2019-02-22T15:44:26.493Z,68.76
2019-02-22T15:45:32.786Z,68.72
2019-02-22T15:46:39.498Z,68.72
2019-02-22T15:47:48.640Z,68.72
2019-02-22T15:48:53.215Z,68.72
2019-02-22T15:50:00.253Z,68.72
2019-02-22T15:51:07.429Z,68.70
2019-02-22T15:52:13.644Z,68.67
2019-02-22T15:53:20.505Z,68.64
2019-02-22T15:54:27.322Z,68.70
2019-02-22T15:55:34.545Z,68.71
2019-02-22T15:56:40.797Z,68.73
2019-02-22T15:57:47.686Z,68.70
2019-02-22T15:58:56.076Z,68.70
2019-02-22T16:00:01.369Z,68.78
2019-02-22T16:01:08.161Z,68.75
2019-02-22T16:02:15.040Z,68.75
2019-02-22T16:03:21.828Z,68.78
2019-02-22T16:04:28.781Z,68.78
2019-02-22T16:05:36.040Z,68.74
2019-02-22T16:06:42.512Z,68.72
2019-02-22T16:07:49.388Z,68.67
2019-02-22T16:08:56.151Z,68.64
2019-02-22T16:10:03.124Z,68.69
2019-02-22T16:11:09.572Z,68.67
2019-02-22T16:12:16.397Z,68.66
2019-02-22T16:13:23.300Z,68.66
2019-02-22T16:14:30.115Z,68.63
2019-02-22T16:15:36.996Z,68.56
2019-02-22T16:16:43.764Z,68.51
2019-02-22T16:17:52.500Z,68.47
2019-02-22T16:18:57.277Z,68.45
2019-02-22T16:20:04.205Z,68.43
2019-02-22T16:21:11.067Z,68.20
2019-02-22T16:22:17.820Z,68.22
2019-02-22T16:23:24.704Z,68.20
2019-02-22T16:24:31.542Z,68.22
2019-02-22T16:25:38.660Z,68.25
2019-02-22T16:26:45.503Z,68.15
2019-02-22T16:27:53.501Z,68.09
2019-02-22T16:28:59.339Z,68.09
2019-02-22T16:30:06.116Z,68.00
2019-02-22T16:31:13.177Z,68.03
2019-02-22T16:32:20.126Z,68.05
2019-02-22T16:33:26.927Z,67.86
2019-02-22T16:34:43.084Z,67.71
2019-02-22T16:35:40.960Z,67.73
2019-02-22T16:36:47.319Z,67.82
2019-02-22T16:37:54.070Z,67.84
2019-02-22T16:39:00.824Z,67.87
2019-02-22T16:40:08.451Z,67.90
2019-02-22T16:41:14.906Z,67.94
2019-02-22T16:42:21.767Z,67.99
2019-02-22T16:43:28.808Z,67.93
2019-02-22T16:44:35.591Z,67.97
2019-02-22T16:45:42.424Z,67.92
2019-02-22T16:46:49.312Z,67.88
2019-02-22T16:47:56.336Z,67.96
2019-02-22T16:49:03.224Z,67.81
2019-02-22T16:50:10.036Z,67.71
2019-02-22T16:51:17.004Z,67.64
2019-02-22T16:52:23.761Z,67.60
2019-02-22T16:53:30.429Z,67.53
2019-02-22T16:54:37.274Z,67.54
2019-02-22T16:55:45.251Z,67.40
2019-02-22T16:56:51.123Z,67.36
2019-02-22T16:57:58.005Z,67.39
2019-02-22T16:59:04.764Z,67.22
2019-02-22T17:00:11.724Z,67.26
2019-02-22T17:01:18.329Z,67.13
2019-02-22T17:02:26.600Z,67.08
2019-02-22T17:03:31.917Z,66.93
2019-02-22T17:04:39.101Z,66.96
2019-02-22T17:05:46.128Z,66.93
2019-02-22T17:06:52.434Z,66.95
2019-02-22T17:07:59.212Z,66.97
2019-02-22T17:09:06.048Z,66.96
2019-02-22T17:10:12.926Z,67.00
2019-02-22T17:11:19.907Z,66.95
2019-02-22T17:12:26.752Z,66.93
2019-02-22T17:13:33.633Z,66.87
2019-02-22T17:14:40.306Z,66.92
2019-02-22T17:15:47.143Z,66.96
2019-02-22T17:16:53.853Z,66.94
2019-02-22T17:18:00.698Z,66.82
2019-02-22T17:19:07.556Z,66.78
2019-02-22T17:20:14.434Z,66.74
2019-02-22T17:21:21.262Z,66.68
2019-02-22T17:22:28.159Z,66.51
2019-02-22T17:23:35.030Z,66.51
2019-02-22T17:24:41.892Z,66.38
2019-02-22T17:25:48.553Z,66.35
2019-02-22T17:26:55.340Z,66.35
2019-02-22T17:28:02.287Z,66.24
2019-02-22T17:29:09.048Z,66.09
2019-02-22T17:30:16.051Z,65.98
2019-02-22T17:31:22.916Z,65.92
2019-02-22T17:32:29.647Z,65.96
2019-02-22T17:33:36.515Z,65.92
2019-02-22T17:34:45.484Z,65.87
2019-02-22T17:35:50.070Z,65.87
2019-02-22T17:36:58.457Z,65.83
2019-02-22T17:38:04.090Z,65.78
2019-02-22T17:39:10.520Z,65.78
2019-02-22T17:40:17.532Z,65.63
2019-02-22T17:41:24.288Z,65.69
2019-02-22T17:42:31.175Z,65.65
2019-02-22T17:43:38.032Z,65.65
2019-02-22T17:44:44.845Z,65.61
2019-02-22T17:45:51.812Z,65.62
2019-02-22T17:46:58.741Z,65.56
2019-02-22T17:48:05.499Z,65.61
2019-02-22T17:49:12.250Z,65.52
2019-02-22T17:50:19.125Z,65.50
2019-02-22T17:51:26.299Z,65.38
2019-02-22T17:52:33.191Z,65.36
2019-02-22T17:53:40.024Z,65.32
2019-02-22T17:54:46.903Z,65.18
2019-02-22T17:55:53.612Z,65.12
2019-02-22T17:57:00.549Z,64.96
2019-02-22T17:58:07.312Z,65.00
2019-02-22T17:59:14.512Z,64.87
2019-02-22T18:00:21.337Z,64.87
2019-02-22T18:01:29.228Z,64.79
2019-02-22T18:02:35.105Z,64.83
2019-02-22T18:03:41.946Z,64.81
2019-02-22T18:04:48.816Z,64.87
2019-02-22T18:05:55.577Z,64.84
2019-02-22T18:07:02.526Z,64.87
2019-02-22T18:08:09.303Z,64.76
2019-02-22T18:09:16.324Z,64.62
2019-02-22T18:10:23.056Z,64.61
2019-02-22T18:11:29.784Z,64.59
2019-02-22T18:12:36.644Z,64.59
2019-02-22T18:13:43.428Z,64.48
2019-02-22T18:14:50.241Z,64.42
2019-02-22T18:15:57.032Z,64.43
2019-02-22T18:17:08.382Z,64.38
2019-02-22T18:18:10.712Z,64.27
2019-02-22T18:19:17.580Z,64.14
2019-02-22T18:20:24.328Z,64.13
2019-02-22T18:21:31.372Z,64.06
2019-02-22T18:22:38.092Z,64.09
2019-02-22T18:23:44.832Z,64.06
2019-02-22T18:24:51.640Z,64.06
2019-02-22T18:25:58.479Z,63.95
2019-02-22T18:27:05.220Z,63.90
2019-02-22T18:28:12.133Z,63.93
2019-02-22T18:29:19.098Z,63.92
2019-02-22T18:30:25.871Z,63.83
2019-02-22T18:31:32.913Z,63.87
2019-02-22T18:32:39.715Z,63.81
2019-02-22T18:33:48.043Z,63.84
2019-02-22T18:34:53.201Z,63.70
2019-02-22T18:36:00.075Z,63.79
2019-02-22T18:37:06.958Z,63.69
2019-02-22T18:38:15.254Z,63.77
2019-02-22T18:39:21.000Z,63.70
2019-02-22T18:40:27.872Z,63.70
2019-02-22T18:41:34.730Z,63.71
2019-02-22T18:42:41.609Z,63.67
2019-02-22T18:43:48.592Z,63.71
2019-02-22T18:44:55.220Z,63.66
2019-02-22T18:46:04.248Z,63.61
2019-02-22T18:47:18.986Z,63.59
2019-02-22T18:48:16.873Z,63.50
2019-02-22T18:49:23.588Z,63.33
2019-02-22T18:50:30.369Z,63.33
2019-02-22T18:51:37.199Z,63.37
2019-02-22T18:52:44.029Z,63.33
2019-02-22T18:53:50.856Z,63.32
2019-02-22T18:54:57.665Z,63.42
2019-02-22T18:56:04.847Z,63.35
2019-02-22T18:57:11.363Z,63.37
2019-02-22T18:58:18.170Z,63.38
2019-02-22T18:59:25.005Z,63.40
2019-02-22T19:00:31.806Z,63.37
2019-02-22T19:01:38.728Z,63.32
2019-02-22T19:02:45.633Z,63.34
2019-02-22T19:03:52.708Z,63.24
2019-02-22T19:04:59.543Z,63.16
2019-02-22T19:06:06.507Z,63.10
2019-02-22T19:07:13.400Z,63.15
2019-02-22T19:08:31.788Z,63.24
2019-02-22T19:09:27.596Z,63.20
2019-02-22T19:10:34.413Z,63.24
2019-02-22T19:11:41.264Z,63.17
2019-02-22T19:12:48.026Z,63.21
2019-02-22T19:13:54.770Z,63.20
2019-02-22T19:15:01.674Z,63.17
2019-02-22T19:16:08.325Z,63.14
2019-02-22T19:17:15.107Z,63.15
2019-02-22T19:18:22.090Z,63.15
2019-02-22T19:19:28.825Z,63.13
2019-02-22T19:20:35.796Z,63.03
2019-02-22T19:21:42.674Z,63.10
2019-02-22T19:22:49.456Z,63.12
2019-02-22T19:23:56.221Z,63.12
2019-02-22T19:25:03.186Z,63.08
2019-02-22T19:26:10.046Z,63.08
2019-02-22T19:27:17.009Z,63.04
2019-02-22T19:28:23.752Z,63.07
2019-02-22T19:29:30.551Z,63.02
2019-02-22T19:30:37.390Z,63.02
2019-02-22T19:31:44.085Z,62.98
2019-02-22T19:32:50.783Z,62.92
2019-02-22T19:33:57.615Z,62.96
2019-02-22T19:35:04.391Z,62.94
2019-02-22T19:36:11.324Z,62.98
2019-02-22T19:37:18.204Z,63.01
2019-02-22T19:38:25.176Z,62.97
2019-02-22T19:39:32.063Z,63.06
2019-02-22T19:40:39.222Z,62.99
2019-02-22T19:41:46.096Z,63.08
2019-02-22T19:42:52.869Z,63.16
2019-02-22T19:43:59.704Z,63.24
2019-02-22T19:45:06.505Z,63.21
2019-02-22T19:46:13.424Z,63.27
2019-02-22T19:47:20.308Z,63.24
2019-02-22T19:48:27.619Z,63.25
2019-02-22T19:49:34.056Z,63.27
2019-02-22T19:50:41.784Z,63.27
2019-02-22T19:51:47.674Z,63.27
2019-02-22T19:52:54.360Z,63.34
2019-02-22T19:54:01.307Z,63.39
2019-02-22T19:55:08.088Z,63.48
2019-02-22T19:56:15.032Z,63.53
2019-02-22T19:57:21.799Z,63.50
2019-02-22T19:58:28.668Z,63.54
2019-02-22T19:59:35.888Z,63.60
2019-02-22T20:00:42.227Z,63.58
2019-02-22T20:01:49.181Z,63.62
2019-02-22T20:02:57.476Z,63.70
2019-02-22T20:04:02.729Z,63.68
2019-02-22T20:05:09.389Z,63.78
2019-02-22T20:06:16.286Z,63.90
2019-02-22T20:07:23.122Z,63.93
2019-02-22T20:08:29.972Z,63.90
2019-02-22T20:09:37.060Z,63.94
2019-02-22T20:10:43.717Z,63.97
2019-02-22T20:11:50.591Z,64.11
2019-02-22T20:12:57.453Z,64.15
2019-02-22T20:14:05.840Z,64.11
2019-02-22T20:15:11.200Z,64.12
2019-02-22T20:16:17.877Z,64.14
2019-02-22T20:17:24.705Z,64.17
2019-02-22T20:18:31.576Z,64.20
2019-02-22T20:19:38.293Z,64.15
2019-02-22T20:20:45.616Z,64.24
2019-02-22T20:21:52.390Z,64.23
2019-02-22T20:22:59.240Z,64.23
2019-02-22T20:24:06.026Z,64.24
2019-02-22T20:25:12.993Z,64.17
2019-02-22T20:26:21.240Z,64.14
2019-02-22T20:27:26.493Z,64.31
2019-02-22T20:28:35.112Z,64.31
2019-02-22T20:29:40.245Z,64.33
2019-02-22T20:30:47.148Z,64.33
2019-02-22T20:31:53.876Z,64.29
2019-02-22T20:33:00.792Z,64.35
2019-02-22T20:34:07.615Z,64.34
2019-02-22T20:35:14.603Z,64.41
2019-02-22T20:36:28.471Z,64.54
2019-02-22T20:37:28.143Z,64.51
2019-02-22T20:38:35.034Z,64.57
2019-02-22T20:39:41.859Z,64.60
2019-02-22T20:40:48.613Z,64.61
2019-02-22T20:41:55.598Z,64.59
2019-02-22T20:43:02.573Z,64.64
2019-02-22T20:44:09.437Z,64.78
2019-02-22T20:45:16.397Z,64.79
2019-02-22T20:46:23.191Z,64.81
2019-02-22T20:47:30.445Z,64.85
2019-02-22T20:48:38.028Z,64.79
2019-02-22T20:49:44.369Z,64.78
2019-02-22T20:50:51.679Z,64.75
2019-02-22T20:51:58.213Z,64.86
2019-02-22T20:53:04.974Z,64.91
2019-02-22T20:54:11.840Z,64.94
2019-02-22T20:55:18.616Z,64.92
2019-02-22T20:56:25.450Z,64.90
2019-02-22T20:57:34.702Z,64.92
2019-02-22T20:58:39.314Z,64.91
2019-02-22T20:59:46.172Z,64.99
2019-02-22T21:00:53.053Z,64.98
2019-02-22T21:01:59.800Z,65.00
2019-02-22T21:03:06.687Z,65.03
2019-02-22T21:04:13.553Z,65.12
2019-02-22T21:05:20.225Z,65.15
2019-02-22T21:06:27.105Z,65.11
2019-02-22T21:07:33.876Z,65.22
2019-02-22T21:08:40.512Z,65.16
2019-02-22T21:09:47.888Z,65.19
2019-02-22T21:10:54.575Z,65.29
2019-02-22T21:12:01.437Z,65.38
2019-02-22T21:13:08.741Z,65.42
2019-02-22T21:14:16.388Z,65.49
2019-02-22T21:15:22.123Z,65.50
2019-02-22T21:16:29.505Z,65.54
2019-02-22T21:17:36.372Z,65.62
2019-02-22T21:18:46.124Z,65.72
2019-02-22T21:19:49.997Z,65.71
2019-02-22T21:20:59.627Z,65.76
2019-02-22T21:22:03.959Z,65.74
2019-02-22T21:23:10.924Z,65.77
2019-02-22T21:24:17.252Z,65.86
2019-02-22T21:25:24.513Z,65.99
2019-02-22T21:26:31.296Z,66.04
2019-02-22T21:27:38.205Z,66.05
2019-02-22T21:28:45.046Z,66.09
2019-02-22T21:29:51.801Z,66.21
2019-02-22T21:30:58.489Z,66.32
2019-02-22T21:32:05.415Z,66.39
2019-02-22T21:33:12.269Z,66.43
2019-02-22T21:34:18.960Z,66.46
2019-02-22T21:35:25.943Z,66.49
2019-02-22T21:36:32.947Z,66.58
2019-02-22T21:37:42.067Z,66.58
2019-02-22T21:38:46.485Z,66.57
2019-02-22T21:39:53.343Z,66.61
2019-02-22T21:41:00.380Z,66.60
2019-02-22T21:42:07.268Z,66.63
2019-02-22T21:43:14.060Z,66.65
2019-02-22T21:44:20.840Z,66.65
2019-02-22T21:45:27.622Z,66.66
2019-02-22T21:46:34.397Z,66.73
2019-02-22T21:47:53.718Z,66.74
2019-02-22T21:48:48.384Z,66.83
2019-02-22T21:49:54.709Z,66.86
2019-02-22T21:51:01.567Z,66.88
2019-02-22T21:52:08.331Z,66.90
2019-02-22T21:53:15.329Z,66.94
2019-02-22T21:54:22.167Z,66.93
2019-02-22T21:55:29.039Z,66.93
2019-02-22T21:56:35.803Z,66.93
2019-02-22T21:57:44.023Z,67.00
2019-02-22T21:58:49.772Z,66.99
2019-02-22T21:59:56.620Z,67.02
2019-02-22T22:01:03.692Z,67.01
2019-02-22T22:02:10.709Z,67.00
2019-02-22T22:03:17.752Z,66.99
2019-02-22T22:04:24.408Z,66.93
2019-02-22T22:05:31.465Z,66.96
2019-02-22T22:06:38.188Z,67.03
2019-02-22T22:07:44.961Z,67.09
2019-02-22T22:08:51.775Z,67.19
2019-02-22T22:10:00.230Z,67.19
2019-02-22T22:11:05.393Z,67.20
2019-02-22T22:12:12.148Z,67.19
2019-02-22T22:13:20.709Z,67.22
2019-02-22T22:14:25.898Z,67.20
2019-02-22T22:15:32.775Z,67.18
2019-02-22T22:16:39.520Z,67.19
2019-02-22T22:17:46.376Z,67.20
2019-02-22T22:18:53.150Z,67.20
2019-02-22T22:19:59.926Z,67.26
2019-02-22T22:21:06.692Z,67.24
2019-02-22T22:22:13.461Z,67.26
2019-02-22T22:23:20.412Z,67.31
2019-02-22T22:24:27.167Z,67.29
2019-02-22T22:25:34.075Z,67.32
2019-02-22T22:26:41.061Z,67.37
2019-02-22T22:27:47.755Z,67.41
2019-02-22T22:28:54.556Z,67.32
2019-02-22T22:30:01.484Z,67.33
2019-02-22T22:31:07.979Z,67.33
2019-02-22T22:32:15.259Z,67.30
2019-02-22T22:33:21.624Z,67.37
2019-02-22T22:34:28.489Z,67.45
2019-02-22T22:35:35.368Z,67.53
2019-02-22T22:36:42.219Z,67.52
2019-02-22T22:37:49.296Z,67.62
2019-02-22T22:38:56.269Z,67.64
2019-02-22T22:40:03.072Z,67.65
2019-02-22T22:41:09.984Z,67.66
2019-02-22T22:42:17.381Z,67.69
2019-02-22T22:43:23.634Z,67.72
2019-02-22T22:44:30.432Z,67.69
2019-02-22T22:45:37.198Z,67.78
2019-02-22T22:46:44.026Z,67.86
2019-02-22T22:47:50.966Z,67.96
2019-02-22T22:48:57.743Z,67.99
2019-02-22T22:50:04.740Z,68.03
2019-02-22T22:51:11.381Z,68.16
2019-02-22T22:52:18.172Z,68.24
2019-02-22T22:53:24.920Z,68.25
2019-02-22T22:54:31.959Z,68.30
2019-02-22T22:55:38.639Z,68.28
2019-02-22T22:56:45.614Z,68.28
2019-02-22T22:57:52.292Z,68.33
2019-02-22T22:58:58.949Z,68.34
2019-02-22T23:00:05.846Z,68.35
2019-02-22T23:01:12.590Z,68.38
2019-02-22T23:02:19.451Z,68.41
2019-02-22T23:03:26.519Z,68.46
2019-02-22T23:04:33.522Z,68.40
2019-02-22T23:05:40.557Z,68.44
2019-02-22T23:06:47.940Z,68.47
2019-02-22T23:07:54.492Z,68.56
2019-02-22T23:09:01.371Z,68.62
2019-02-22T23:10:08.484Z,68.60
2019-02-22T23:11:15.385Z,68.63
2019-02-22T23:12:22.288Z,68.69
2019-02-22T23:13:29.142Z,68.71
2019-02-22T23:14:35.811Z,68.69
2019-02-22T23:15:43.112Z,68.75
2019-02-22T23:16:49.957Z,68.73
2019-02-22T23:17:56.823Z,68.75
2019-02-22T23:19:04.091Z,68.76
2019-02-22T23:20:10.276Z,68.82
2019-02-22T23:21:17.072Z,68.88
2019-02-22T23:22:23.772Z,68.99
2019-02-22T23:23:31.232Z,69.03
2019-02-22T23:24:38.024Z,69.07
2019-02-22T23:25:44.816Z,69.05
2019-02-22T23:26:51.572Z,69.06
2019-02-22T23:27:58.304Z,69.07
2019-02-22T23:29:05.197Z,69.12
2019-02-22T23:30:11.978Z,69.09
2019-02-22T23:31:18.826Z,69.05
2019-02-22T23:32:25.593Z,69.13
2019-02-22T23:33:32.454Z,69.19
2019-02-22T23:34:39.221Z,69.21
2019-02-22T23:35:46.115Z,69.21
2019-02-22T23:36:52.976Z,69.28
2019-02-22T23:37:59.808Z,69.31
2019-02-22T23:39:06.606Z,69.29
2019-02-22T23:40:13.692Z,69.26
2019-02-22T23:41:20.532Z,69.35
2019-02-22T23:42:27.400Z,69.35
2019-02-22T23:43:34.424Z,69.34
2019-02-22T23:44:41.226Z,69.39
2019-02-22T23:45:48.019Z,69.40
2019-02-22T23:46:54.764Z,69.42
2019-02-22T23:48:01.631Z,69.41
2019-02-22T23:49:13.195Z,69.46
2019-02-22T23:50:15.187Z,69.48
2019-02-22T23:51:22.024Z,69.48
2019-02-22T23:52:28.885Z,69.48
2019-02-22T23:53:35.680Z,69.54
2019-02-22T23:54:42.424Z,69.59
2019-02-22T23:55:49.282Z,69.60
2019-02-22T23:56:56.052Z,69.59
2019-02-22T23:58:02.921Z,69.62
2019-02-22T23:59:09.594Z,69.62
